sensor_id;sensor_type;location;lat;lon;timestamp;P1;durP1;ratioP1;P2;durP2;ratioP2
59189;SDS011;50749;51.636;4.948;2022-08-30T00:00:15;2.38;;;1.00;;
59189;SDS011;50749;51.636;4.948;2022-08-30T00:03:02;1.88;;;0.98;;
59189;SDS011;50749;51.636;4.948;2022-08-30T00:05:29;3.42;;;1.27;;
59189;SDS011;50749;51.636;4.948;2022-08-30T00:07:55;3.45;;;1.02;;
59189;SDS011;50749;51.636;4.948;2022-08-30T00:10:22;13.90;;;2.63;;
59189;SDS011;50749;51.636;4.948;2022-08-30T00:12:48;3.08;;;1.00;;
59189;SDS011;50749;51.636;4.948;2022-08-30T00:15:14;4.10;;;1.60;;
59189;SDS011;50749;51.636;4.948;2022-08-30T00:17:42;2.38;;;1.17;;
59189;SDS011;50749;51.636;4.948;2022-08-30T00:20:10;2.55;;;1.20;;
59189;SDS011;50749;51.636;4.948;2022-08-30T00:22:37;5.10;;;1.15;;
59189;SDS011;50749;51.636;4.948;2022-08-30T00:25:05;1.80;;;1.05;;
59189;SDS011;50749;51.636;4.948;2022-08-30T00:27:31;2.00;;;1.10;;
59189;SDS011;50749;51.636;4.948;2022-08-30T00:29:57;4.18;;;1.00;;
59189;SDS011;50749;51.636;4.948;2022-08-30T00:32:23;2.35;;;1.00;;
59189;SDS011;50749;51.636;4.948;2022-08-30T00:34:50;3.22;;;1.45;;
59189;SDS011;50749;51.636;4.948;2022-08-30T00:37:17;1.50;;;1.00;;
59189;SDS011;50749;51.636;4.948;2022-08-30T00:39:44;2.05;;;1.13;;
59189;SDS011;50749;51.636;4.948;2022-08-30T00:42:10;2.95;;;1.00;;
59189;SDS011;50749;51.636;4.948;2022-08-30T00:44:37;2.53;;;1.20;;
59189;SDS011;50749;51.636;4.948;2022-08-30T00:47:03;2.28;;;1.15;;
59189;SDS011;50749;51.636;4.948;2022-08-30T00:49:29;2.72;;;1.20;;
59189;SDS011;50749;51.636;4.948;2022-08-30T00:51:56;3.13;;;1.08;;
59189;SDS011;50749;51.636;4.948;2022-08-30T00:54:23;1.75;;;1.10;;
59189;SDS011;50749;51.636;4.948;2022-08-30T00:56:50;1.73;;;1.05;;
59189;SDS011;50749;51.636;4.948;2022-08-30T00:59:17;2.83;;;1.00;;
59189;SDS011;50749;51.636;4.948;2022-08-30T01:01:44;2.53;;;1.20;;
59189;SDS011;50749;51.636;4.948;2022-08-30T01:04:10;2.53;;;1.00;;
59189;SDS011;50749;51.636;4.948;2022-08-30T01:06:39;1.92;;;1.27;;
59189;SDS011;50749;51.636;4.948;2022-08-30T01:09:06;2.72;;;1.20;;
59189;SDS011;50749;51.636;4.948;2022-08-30T01:11:33;1.55;;;0.90;;
59189;SDS011;50749;51.636;4.948;2022-08-30T01:14:02;1.98;;;0.93;;
59189;SDS011;50749;51.636;4.948;2022-08-30T01:16:30;2.08;;;1.00;;
59189;SDS011;50749;51.636;4.948;2022-08-30T01:18:58;2.55;;;1.10;;
59189;SDS011;50749;51.636;4.948;2022-08-30T01:24:21;4.05;;;1.25;;
59189;SDS011;50749;51.636;4.948;2022-08-30T01:26:47;3.15;;;0.98;;
59189;SDS011;50749;51.636;4.948;2022-08-30T01:29:14;2.97;;;1.13;;
59189;SDS011;50749;51.636;4.948;2022-08-30T01:31:44;2.03;;;1.17;;
59189;SDS011;50749;51.636;4.948;2022-08-30T01:34:10;2.00;;;1.20;;
59189;SDS011;50749;51.636;4.948;2022-08-30T01:36:37;1.30;;;0.73;;
59189;SDS011;50749;51.636;4.948;2022-08-30T01:39:07;3.47;;;1.20;;
59189;SDS011;50749;51.636;4.948;2022-08-30T01:41:34;1.95;;;1.17;;
59189;SDS011;50749;51.636;4.948;2022-08-30T01:44:02;2.15;;;1.00;;
59189;SDS011;50749;51.636;4.948;2022-08-30T01:46:34;2.65;;;1.05;;
59189;SDS011;50749;51.636;4.948;2022-08-30T01:49:06;2.10;;;1.13;;
59189;SDS011;50749;51.636;4.948;2022-08-30T01:51:34;2.25;;;1.10;;
59189;SDS011;50749;51.636;4.948;2022-08-30T01:54:01;2.88;;;1.70;;
59189;SDS011;50749;51.636;4.948;2022-08-30T01:56:27;1.58;;;1.10;;
59189;SDS011;50749;51.636;4.948;2022-08-30T01:58:54;1.17;;;0.73;;
59189;SDS011;50749;51.636;4.948;2022-08-30T02:01:21;1.83;;;1.15;;
59189;SDS011;50749;51.636;4.948;2022-08-30T02:03:50;2.53;;;0.88;;
59189;SDS011;50749;51.636;4.948;2022-08-30T02:06:19;1.75;;;1.00;;
59189;SDS011;50749;51.636;4.948;2022-08-30T02:08:45;3.25;;;1.20;;
59189;SDS011;50749;51.636;4.948;2022-08-30T02:11:11;2.65;;;0.90;;
59189;SDS011;50749;51.636;4.948;2022-08-30T02:13:39;1.92;;;0.90;;
59189;SDS011;50749;51.636;4.948;2022-08-30T02:16:07;3.28;;;1.25;;
59189;SDS011;50749;51.636;4.948;2022-08-30T02:18:35;1.63;;;0.90;;
59189;SDS011;50749;51.636;4.948;2022-08-30T02:21:03;1.92;;;1.13;;
59189;SDS011;50749;51.636;4.948;2022-08-30T02:23:30;1.50;;;0.85;;
59189;SDS011;50749;51.636;4.948;2022-08-30T02:25:55;3.80;;;1.10;;
59189;SDS011;50749;51.636;4.948;2022-08-30T02:28:22;1.88;;;1.30;;
59189;SDS011;50749;51.636;4.948;2022-08-30T02:30:49;2.97;;;1.10;;
59189;SDS011;50749;51.636;4.948;2022-08-30T02:33:16;1.50;;;0.90;;
59189;SDS011;50749;51.636;4.948;2022-08-30T02:35:42;1.58;;;1.00;;
59189;SDS011;50749;51.636;4.948;2022-08-30T02:38:08;3.47;;;1.20;;
59189;SDS011;50749;51.636;4.948;2022-08-30T02:40:34;2.75;;;1.20;;
59189;SDS011;50749;51.636;4.948;2022-08-30T02:43:00;2.08;;;1.05;;
59189;SDS011;50749;51.636;4.948;2022-08-30T02:45:26;2.97;;;1.15;;
59189;SDS011;50749;51.636;4.948;2022-08-30T02:47:52;2.55;;;0.85;;
59189;SDS011;50749;51.636;4.948;2022-08-30T02:50:21;1.67;;;1.05;;
59189;SDS011;50749;51.636;4.948;2022-08-30T02:52:47;2.20;;;1.25;;
59189;SDS011;50749;51.636;4.948;2022-08-30T02:55:13;2.30;;;1.20;;
59189;SDS011;50749;51.636;4.948;2022-08-30T02:57:40;2.80;;;1.02;;
59189;SDS011;50749;51.636;4.948;2022-08-30T03:00:07;1.92;;;1.20;;
59189;SDS011;50749;51.636;4.948;2022-08-30T03:02:35;2.53;;;1.10;;
59189;SDS011;50749;51.636;4.948;2022-08-30T03:05:01;2.10;;;1.00;;
59189;SDS011;50749;51.636;4.948;2022-08-30T03:07:27;2.50;;;1.27;;
59189;SDS011;50749;51.636;4.948;2022-08-30T03:09:53;2.70;;;1.00;;
59189;SDS011;50749;51.636;4.948;2022-08-30T03:12:19;3.17;;;1.10;;
59189;SDS011;50749;51.636;4.948;2022-08-30T03:14:45;2.97;;;1.30;;
59189;SDS011;50749;51.636;4.948;2022-08-30T03:17:11;1.70;;;1.17;;
59189;SDS011;50749;51.636;4.948;2022-08-30T03:19:37;1.95;;;1.27;;
59189;SDS011;50749;51.636;4.948;2022-08-30T03:22:03;1.95;;;1.25;;
59189;SDS011;50749;51.636;4.948;2022-08-30T03:24:30;2.60;;;1.10;;
59189;SDS011;50749;51.636;4.948;2022-08-30T03:26:56;1.60;;;1.05;;
59189;SDS011;50749;51.636;4.948;2022-08-30T03:29:22;1.73;;;0.88;;
59189;SDS011;50749;51.636;4.948;2022-08-30T03:31:48;2.38;;;1.13;;
59189;SDS011;50749;51.636;4.948;2022-08-30T03:34:14;4.60;;;1.10;;
59189;SDS011;50749;51.636;4.948;2022-08-30T03:36:40;2.13;;;1.23;;
59189;SDS011;50749;51.636;4.948;2022-08-30T03:39:06;2.05;;;1.08;;
59189;SDS011;50749;51.636;4.948;2022-08-30T03:41:33;1.80;;;1.05;;
59189;SDS011;50749;51.636;4.948;2022-08-30T03:43:59;3.17;;;1.08;;
59189;SDS011;50749;51.636;4.948;2022-08-30T03:46:26;1.63;;;1.05;;
59189;SDS011;50749;51.636;4.948;2022-08-30T03:48:52;2.63;;;1.15;;
59189;SDS011;50749;51.636;4.948;2022-08-30T03:51:20;2.15;;;1.20;;
59189;SDS011;50749;51.636;4.948;2022-08-30T03:53:47;2.03;;;1.27;;
59189;SDS011;50749;51.636;4.948;2022-08-30T03:56:13;1.95;;;1.10;;
59189;SDS011;50749;51.636;4.948;2022-08-30T03:58:39;1.48;;;1.00;;
59189;SDS011;50749;51.636;4.948;2022-08-30T04:01:05;4.40;;;1.00;;
59189;SDS011;50749;51.636;4.948;2022-08-30T04:03:33;2.22;;;1.05;;
59189;SDS011;50749;51.636;4.948;2022-08-30T04:05:59;2.58;;;1.10;;
59189;SDS011;50749;51.636;4.948;2022-08-30T04:08:25;1.92;;;1.10;;
59189;SDS011;50749;51.636;4.948;2022-08-30T04:10:52;2.70;;;1.30;;
59189;SDS011;50749;51.636;4.948;2022-08-30T04:13:19;2.17;;;1.00;;
59189;SDS011;50749;51.636;4.948;2022-08-30T04:15:45;4.07;;;1.33;;
59189;SDS011;50749;51.636;4.948;2022-08-30T04:18:12;1.63;;;1.00;;
59189;SDS011;50749;51.636;4.948;2022-08-30T04:20:38;1.50;;;0.90;;
59189;SDS011;50749;51.636;4.948;2022-08-30T04:23:04;1.85;;;1.15;;
59189;SDS011;50749;51.636;4.948;2022-08-30T04:25:34;2.15;;;1.10;;
59189;SDS011;50749;51.636;4.948;2022-08-30T04:28:01;1.50;;;1.10;;
59189;SDS011;50749;51.636;4.948;2022-08-30T04:30:28;1.90;;;1.20;;
59189;SDS011;50749;51.636;4.948;2022-08-30T04:32:55;1.25;;;0.85;;
59189;SDS011;50749;51.636;4.948;2022-08-30T04:35:21;2.00;;;1.13;;
59189;SDS011;50749;51.636;4.948;2022-08-30T04:37:47;1.67;;;1.02;;
59189;SDS011;50749;51.636;4.948;2022-08-30T04:40:14;2.30;;;1.30;;
59189;SDS011;50749;51.636;4.948;2022-08-30T04:42:40;1.98;;;1.38;;
59189;SDS011;50749;51.636;4.948;2022-08-30T04:45:08;1.95;;;1.10;;
59189;SDS011;50749;51.636;4.948;2022-08-30T04:47:36;1.73;;;1.00;;
59189;SDS011;50749;51.636;4.948;2022-08-30T04:50:04;1.83;;;1.20;;
59189;SDS011;50749;51.636;4.948;2022-08-30T04:52:35;1.85;;;1.23;;
59189;SDS011;50749;51.636;4.948;2022-08-30T04:55:01;1.63;;;1.08;;
59189;SDS011;50749;51.636;4.948;2022-08-30T04:57:27;2.30;;;1.10;;
59189;SDS011;50749;51.636;4.948;2022-08-30T04:59:53;1.63;;;1.10;;
59189;SDS011;50749;51.636;4.948;2022-08-30T05:02:19;1.80;;;1.23;;
59189;SDS011;50749;51.636;4.948;2022-08-30T05:04:46;3.55;;;1.45;;
59189;SDS011;50749;51.636;4.948;2022-08-30T05:07:30;2.97;;;1.30;;
59189;SDS011;50749;51.636;4.948;2022-08-30T05:09:56;2.03;;;1.20;;
59189;SDS011;50749;51.636;4.948;2022-08-30T05:12:23;2.50;;;1.30;;
59189;SDS011;50749;51.636;4.948;2022-08-30T05:14:49;1.92;;;1.23;;
59189;SDS011;50749;51.636;4.948;2022-08-30T05:17:15;1.75;;;1.02;;
59189;SDS011;50749;51.636;4.948;2022-08-30T05:19:41;1.80;;;1.05;;
59189;SDS011;50749;51.636;4.948;2022-08-30T05:22:07;2.00;;;1.23;;
59189;SDS011;50749;51.636;4.948;2022-08-30T05:24:33;1.80;;;1.00;;
59189;SDS011;50749;51.636;4.948;2022-08-30T05:26:59;1.05;;;0.82;;
59189;SDS011;50749;51.636;4.948;2022-08-30T05:29:25;1.50;;;1.02;;
59189;SDS011;50749;51.636;4.948;2022-08-30T05:31:51;2.22;;;1.00;;
59189;SDS011;50749;51.636;4.948;2022-08-30T05:34:17;2.60;;;1.40;;
59189;SDS011;50749;51.636;4.948;2022-08-30T05:36:44;1.52;;;1.08;;
59189;SDS011;50749;51.636;4.948;2022-08-30T05:39:09;1.65;;;1.13;;
59189;SDS011;50749;51.636;4.948;2022-08-30T05:41:35;2.05;;;1.10;;
59189;SDS011;50749;51.636;4.948;2022-08-30T05:44:02;2.72;;;1.50;;
59189;SDS011;50749;51.636;4.948;2022-08-30T05:46:31;1.38;;;0.93;;
59189;SDS011;50749;51.636;4.948;2022-08-30T05:49:00;2.72;;;1.10;;
59189;SDS011;50749;51.636;4.948;2022-08-30T05:51:29;2.08;;;1.08;;
59189;SDS011;50749;51.636;4.948;2022-08-30T05:53:56;2.10;;;1.05;;
59189;SDS011;50749;51.636;4.948;2022-08-30T05:56:29;2.10;;;1.20;;
59189;SDS011;50749;51.636;4.948;2022-08-30T05:58:56;1.63;;;1.08;;
59189;SDS011;50749;51.636;4.948;2022-08-30T06:03:48;2.33;;;1.20;;
59189;SDS011;50749;51.636;4.948;2022-08-30T06:06:14;1.92;;;1.33;;
59189;SDS011;50749;51.636;4.948;2022-08-30T06:08:40;1.70;;;1.10;;
59189;SDS011;50749;51.636;4.948;2022-08-30T06:11:06;1.10;;;0.80;;
59189;SDS011;50749;51.636;4.948;2022-08-30T06:13:33;1.65;;;1.00;;
59189;SDS011;50749;51.636;4.948;2022-08-30T06:15:58;2.10;;;1.33;;
59189;SDS011;50749;51.636;4.948;2022-08-30T06:18:24;1.58;;;0.85;;
59189;SDS011;50749;51.636;4.948;2022-08-30T06:20:50;2.67;;;1.30;;
59189;SDS011;50749;51.636;4.948;2022-08-30T06:23:15;1.42;;;0.82;;
59189;SDS011;50749;51.636;4.948;2022-08-30T06:25:42;1.20;;;0.80;;
59189;SDS011;50749;51.636;4.948;2022-08-30T06:28:09;1.45;;;0.75;;
59189;SDS011;50749;51.636;4.948;2022-08-30T06:30:38;1.52;;;0.70;;
59189;SDS011;50749;51.636;4.948;2022-08-30T06:33:05;1.58;;;1.05;;
59189;SDS011;50749;51.636;4.948;2022-08-30T06:35:31;1.40;;;1.00;;
59189;SDS011;50749;51.636;4.948;2022-08-30T06:37:57;1.77;;;0.98;;
59189;SDS011;50749;51.636;4.948;2022-08-30T06:40:23;1.55;;;0.95;;
59189;SDS011;50749;51.636;4.948;2022-08-30T06:42:49;1.73;;;0.80;;
59189;SDS011;50749;51.636;4.948;2022-08-30T06:45:16;2.00;;;0.90;;
59189;SDS011;50749;51.636;4.948;2022-08-30T06:47:43;1.35;;;0.80;;
59189;SDS011;50749;51.636;4.948;2022-08-30T06:50:09;5.30;;;0.93;;
59189;SDS011;50749;51.636;4.948;2022-08-30T06:52:36;2.40;;;0.80;;
59189;SDS011;50749;51.636;4.948;2022-08-30T06:55:03;1.33;;;0.80;;
59189;SDS011;50749;51.636;4.948;2022-08-30T06:57:29;2.00;;;1.10;;
59189;SDS011;50749;51.636;4.948;2022-08-30T06:59:55;1.60;;;0.90;;
59189;SDS011;50749;51.636;4.948;2022-08-30T07:02:22;1.85;;;0.82;;
59189;SDS011;50749;51.636;4.948;2022-08-30T07:04:48;1.25;;;0.70;;
59189;SDS011;50749;51.636;4.948;2022-08-30T07:07:14;2.30;;;0.93;;
59189;SDS011;50749;51.636;4.948;2022-08-30T07:09:41;2.35;;;1.08;;
59189;SDS011;50749;51.636;4.948;2022-08-30T07:12:08;2.28;;;0.85;;
59189;SDS011;50749;51.636;4.948;2022-08-30T07:14:35;1.48;;;0.70;;
59189;SDS011;50749;51.636;4.948;2022-08-30T07:17:02;2.00;;;1.00;;
59189;SDS011;50749;51.636;4.948;2022-08-30T07:19:48;0.70;;;0.60;;
59189;SDS011;50749;51.636;4.948;2022-08-30T07:22:14;1.35;;;0.73;;
59189;SDS011;50749;51.636;4.948;2022-08-30T07:24:40;0.93;;;0.68;;
59189;SDS011;50749;51.636;4.948;2022-08-30T07:27:06;3.05;;;0.80;;
59189;SDS011;50749;51.636;4.948;2022-08-30T07:29:32;1.25;;;0.82;;
59189;SDS011;50749;51.636;4.948;2022-08-30T07:31:58;1.85;;;0.90;;
59189;SDS011;50749;51.636;4.948;2022-08-30T07:34:24;1.20;;;0.90;;
59189;SDS011;50749;51.636;4.948;2022-08-30T07:36:49;2.42;;;1.10;;
59189;SDS011;50749;51.636;4.948;2022-08-30T07:39:15;1.88;;;0.90;;
59189;SDS011;50749;51.636;4.948;2022-08-30T07:41:41;1.15;;;0.60;;
59189;SDS011;50749;51.636;4.948;2022-08-30T07:44:08;1.23;;;0.77;;
59189;SDS011;50749;51.636;4.948;2022-08-30T07:46:35;1.23;;;0.70;;
59189;SDS011;50749;51.636;4.948;2022-08-30T07:49:01;2.28;;;0.90;;
59189;SDS011;50749;51.636;4.948;2022-08-30T07:51:28;1.10;;;0.70;;
59189;SDS011;50749;51.636;4.948;2022-08-30T07:53:54;2.75;;;0.90;;
59189;SDS011;50749;51.636;4.948;2022-08-30T07:56:22;1.67;;;0.70;;
59189;SDS011;50749;51.636;4.948;2022-08-30T07:58:48;1.08;;;0.65;;
59189;SDS011;50749;51.636;4.948;2022-08-30T08:01:15;1.10;;;0.65;;
59189;SDS011;50749;51.636;4.948;2022-08-30T08:03:42;1.40;;;0.90;;
59189;SDS011;50749;51.636;4.948;2022-08-30T08:06:09;2.33;;;0.80;;
59189;SDS011;50749;51.636;4.948;2022-08-30T08:08:37;1.42;;;0.60;;
59189;SDS011;50749;51.636;4.948;2022-08-30T08:11:08;1.90;;;0.90;;
59189;SDS011;50749;51.636;4.948;2022-08-30T08:13:40;0.90;;;0.50;;
59189;SDS011;50749;51.636;4.948;2022-08-30T08:16:06;1.33;;;0.68;;
59189;SDS011;50749;51.636;4.948;2022-08-30T08:18:33;1.35;;;0.60;;
59189;SDS011;50749;51.636;4.948;2022-08-30T08:20:59;1.13;;;0.70;;
59189;SDS011;50749;51.636;4.948;2022-08-30T08:23:26;1.23;;;0.70;;
59189;SDS011;50749;51.636;4.948;2022-08-30T08:25:52;0.88;;;0.70;;
59189;SDS011;50749;51.636;4.948;2022-08-30T08:28:18;1.05;;;0.65;;
59189;SDS011;50749;51.636;4.948;2022-08-30T08:30:45;1.13;;;0.60;;
59189;SDS011;50749;51.636;4.948;2022-08-30T08:33:11;0.93;;;0.57;;
59189;SDS011;50749;51.636;4.948;2022-08-30T08:35:38;1.20;;;0.70;;
59189;SDS011;50749;51.636;4.948;2022-08-30T08:38:04;0.98;;;0.50;;
59189;SDS011;50749;51.636;4.948;2022-08-30T08:40:46;1.15;;;0.68;;
59189;SDS011;50749;51.636;4.948;2022-08-30T08:43:37;1.40;;;0.60;;
59189;SDS011;50749;51.636;4.948;2022-08-30T08:46:12;2.65;;;0.68;;
59189;SDS011;50749;51.636;4.948;2022-08-30T08:48:50;1.33;;;0.70;;
59189;SDS011;50749;51.636;4.948;2022-08-30T08:51:19;1.20;;;0.68;;
59189;SDS011;50749;51.636;4.948;2022-08-30T08:54:07;0.80;;;0.60;;
59189;SDS011;50749;51.636;4.948;2022-08-30T08:56:35;2.90;;;0.80;;
59189;SDS011;50749;51.636;4.948;2022-08-30T08:59:03;1.33;;;0.82;;
59189;SDS011;50749;51.636;4.948;2022-08-30T09:01:31;0.77;;;0.65;;
59189;SDS011;50749;51.636;4.948;2022-08-30T09:03:58;1.73;;;0.80;;
59189;SDS011;50749;51.636;4.948;2022-08-30T09:09:33;1.30;;;0.80;;
59189;SDS011;50749;51.636;4.948;2022-08-30T09:12:02;1.02;;;0.60;;
59189;SDS011;50749;51.636;4.948;2022-08-30T09:14:37;1.00;;;0.68;;
59189;SDS011;50749;51.636;4.948;2022-08-30T09:17:06;1.63;;;0.70;;
59189;SDS011;50749;51.636;4.948;2022-08-30T09:19:43;0.95;;;0.60;;
59189;SDS011;50749;51.636;4.948;2022-08-30T09:22:34;1.00;;;0.70;;
59189;SDS011;50749;51.636;4.948;2022-08-30T09:30:15;1.38;;;0.70;;
59189;SDS011;50749;51.636;4.948;2022-08-30T09:35:22;2.38;;;0.80;;
59189;SDS011;50749;51.636;4.948;2022-08-30T09:37:52;0.93;;;0.60;;
59189;SDS011;50749;51.636;4.948;2022-08-30T09:40:23;0.77;;;0.47;;
59189;SDS011;50749;51.636;4.948;2022-08-30T09:43:07;1.73;;;0.60;;
59189;SDS011;50749;51.636;4.948;2022-08-30T09:45:37;1.50;;;0.73;;
59189;SDS011;50749;51.636;4.948;2022-08-30T09:51:03;0.90;;;0.65;;
59189;SDS011;50749;51.636;4.948;2022-08-30T09:53:42;0.90;;;0.52;;
59189;SDS011;50749;51.636;4.948;2022-08-30T09:59:35;1.27;;;0.60;;
59189;SDS011;50749;51.636;4.948;2022-08-30T10:10:27;1.05;;;0.60;;
59189;SDS011;50749;51.636;4.948;2022-08-30T10:15:45;1.02;;;0.50;;
59189;SDS011;50749;51.636;4.948;2022-08-30T10:18:20;0.82;;;0.57;;
59189;SDS011;50749;51.636;4.948;2022-08-30T10:20:57;1.77;;;0.63;;
59189;SDS011;50749;51.636;4.948;2022-08-30T10:23:36;1.10;;;0.70;;
59189;SDS011;50749;51.636;4.948;2022-08-30T10:26:24;2.40;;;1.05;;
59189;SDS011;50749;51.636;4.948;2022-08-30T10:29:03;1.75;;;0.50;;
59189;SDS011;50749;51.636;4.948;2022-08-30T10:31:32;0.90;;;0.50;;
59189;SDS011;50749;51.636;4.948;2022-08-30T10:34:13;2.58;;;0.68;;
59189;SDS011;50749;51.636;4.948;2022-08-30T10:37:06;0.88;;;0.60;;
59189;SDS011;50749;51.636;4.948;2022-08-30T10:39:38;0.77;;;0.50;;
59189;SDS011;50749;51.636;4.948;2022-08-30T10:42:09;1.75;;;0.70;;
59189;SDS011;50749;51.636;4.948;2022-08-30T10:44:42;0.82;;;0.63;;
59189;SDS011;50749;51.636;4.948;2022-08-30T10:47:22;0.63;;;0.40;;
59189;SDS011;50749;51.636;4.948;2022-08-30T10:49:51;1.02;;;0.60;;
59189;SDS011;50749;51.636;4.948;2022-08-30T10:52:34;1.23;;;0.55;;
59189;SDS011;50749;51.636;4.948;2022-08-30T10:55:23;0.70;;;0.57;;
59189;SDS011;50749;51.636;4.948;2022-08-30T10:57:57;1.08;;;0.77;;
59189;SDS011;50749;51.636;4.948;2022-08-30T11:00:28;1.10;;;0.70;;
59189;SDS011;50749;51.636;4.948;2022-08-30T11:08:40;2.55;;;0.70;;
59189;SDS011;50749;51.636;4.948;2022-08-30T11:14:10;1.33;;;0.60;;
59189;SDS011;50749;51.636;4.948;2022-08-30T11:16:42;0.82;;;0.50;;
59189;SDS011;50749;51.636;4.948;2022-08-30T11:19:56;1.10;;;0.70;;
59189;SDS011;50749;51.636;4.948;2022-08-30T11:22:11;0.85;;;0.65;;
59189;SDS011;50749;51.636;4.948;2022-08-30T11:24:59;1.15;;;0.68;;
59189;SDS011;50749;51.636;4.948;2022-08-30T11:27:49;0.75;;;0.50;;
59189;SDS011;50749;51.636;4.948;2022-08-30T11:33:04;1.17;;;0.60;;
59189;SDS011;50749;51.636;4.948;2022-08-30T11:35:53;0.82;;;0.52;;
59189;SDS011;50749;51.636;4.948;2022-08-30T11:46:17;1.33;;;0.50;;
59189;SDS011;50749;51.636;4.948;2022-08-30T11:59:50;0.80;;;0.50;;
59189;SDS011;50749;51.636;4.948;2022-08-30T12:08:05;0.82;;;0.50;;
59189;SDS011;50749;51.636;4.948;2022-08-30T12:10:38;0.77;;;0.47;;
59189;SDS011;50749;51.636;4.948;2022-08-30T12:13:06;1.55;;;0.70;;
59189;SDS011;50749;51.636;4.948;2022-08-30T12:15:53;1.45;;;0.77;;
59189;SDS011;50749;51.636;4.948;2022-08-30T12:21:26;1.08;;;0.65;;
59189;SDS011;50749;51.636;4.948;2022-08-30T12:26:43;0.73;;;0.47;;
59189;SDS011;50749;51.636;4.948;2022-08-30T12:31:41;1.13;;;0.50;;
59189;SDS011;50749;51.636;4.948;2022-08-30T12:34:26;1.55;;;0.52;;
59189;SDS011;50749;51.636;4.948;2022-08-30T12:37:21;3.28;;;0.57;;
59189;SDS011;50749;51.636;4.948;2022-08-30T12:40:17;1.17;;;0.50;;
59189;SDS011;50749;51.636;4.948;2022-08-30T12:50:50;1.05;;;0.70;;
59189;SDS011;50749;51.636;4.948;2022-08-30T12:53:22;2.65;;;0.70;;
59189;SDS011;50749;51.636;4.948;2022-08-30T12:55:59;1.83;;;0.50;;
59189;SDS011;50749;51.636;4.948;2022-08-30T12:58:37;0.80;;;0.60;;
59189;SDS011;50749;51.636;4.948;2022-08-30T13:01:24;0.80;;;0.45;;
59189;SDS011;50749;51.636;4.948;2022-08-30T13:04:19;0.98;;;0.70;;
59189;SDS011;50749;51.636;4.948;2022-08-30T13:06:48;0.75;;;0.60;;
59189;SDS011;50749;51.636;4.948;2022-08-30T13:09:23;2.58;;;0.60;;
59189;SDS011;50749;51.636;4.948;2022-08-30T13:11:56;1.05;;;0.57;;
59189;SDS011;50749;51.636;4.948;2022-08-30T13:19:57;1.27;;;0.70;;
59189;SDS011;50749;51.636;4.948;2022-08-30T13:24:58;1.30;;;0.50;;
59189;SDS011;50749;51.636;4.948;2022-08-30T13:27:23;0.95;;;0.57;;
59189;SDS011;50749;51.636;4.948;2022-08-30T13:29:51;1.17;;;0.73;;
59189;SDS011;50749;51.636;4.948;2022-08-30T13:32:17;0.73;;;0.40;;
59189;SDS011;50749;51.636;4.948;2022-08-30T13:34:43;1.15;;;0.55;;
59189;SDS011;50749;51.636;4.948;2022-08-30T13:37:09;0.90;;;0.60;;
59189;SDS011;50749;51.636;4.948;2022-08-30T13:39:40;1.15;;;0.60;;
59189;SDS011;50749;51.636;4.948;2022-08-30T13:42:06;1.02;;;0.50;;
59189;SDS011;50749;51.636;4.948;2022-08-30T13:44:32;1.13;;;0.55;;
59189;SDS011;50749;51.636;4.948;2022-08-30T13:46:58;1.80;;;0.40;;
59189;SDS011;50749;51.636;4.948;2022-08-30T13:49:34;1.05;;;0.75;;
59189;SDS011;50749;51.636;4.948;2022-08-30T13:52:01;1.02;;;0.55;;
59189;SDS011;50749;51.636;4.948;2022-08-30T13:54:28;1.73;;;0.60;;
59189;SDS011;50749;51.636;4.948;2022-08-30T13:56:54;1.40;;;0.60;;
59189;SDS011;50749;51.636;4.948;2022-08-30T13:59:21;1.00;;;0.50;;
59189;SDS011;50749;51.636;4.948;2022-08-30T14:01:47;1.13;;;0.50;;
59189;SDS011;50749;51.636;4.948;2022-08-30T14:04:13;1.15;;;0.55;;
59189;SDS011;50749;51.636;4.948;2022-08-30T14:06:39;1.45;;;0.60;;
59189;SDS011;50749;51.636;4.948;2022-08-30T14:09:05;1.27;;;0.60;;
59189;SDS011;50749;51.636;4.948;2022-08-30T14:11:32;0.82;;;0.50;;
59189;SDS011;50749;51.636;4.948;2022-08-30T14:13:59;0.60;;;0.40;;
59189;SDS011;50749;51.636;4.948;2022-08-30T14:16:25;0.80;;;0.55;;
59189;SDS011;50749;51.636;4.948;2022-08-30T14:18:51;1.33;;;0.50;;
59189;SDS011;50749;51.636;4.948;2022-08-30T14:21:17;0.75;;;0.47;;
59189;SDS011;50749;51.636;4.948;2022-08-30T14:23:43;1.23;;;0.68;;
59189;SDS011;50749;51.636;4.948;2022-08-30T14:26:10;0.65;;;0.40;;
59189;SDS011;50749;51.636;4.948;2022-08-30T14:28:41;1.52;;;0.75;;
59189;SDS011;50749;51.636;4.948;2022-08-30T14:31:09;0.90;;;0.50;;
59189;SDS011;50749;51.636;4.948;2022-08-30T14:33:35;0.65;;;0.50;;
59189;SDS011;50749;51.636;4.948;2022-08-30T14:36:01;0.95;;;0.60;;
59189;SDS011;50749;51.636;4.948;2022-08-30T14:38:27;1.80;;;0.55;;
59189;SDS011;50749;51.636;4.948;2022-08-30T14:40:53;1.02;;;0.68;;
59189;SDS011;50749;51.636;4.948;2022-08-30T14:43:19;1.23;;;0.50;;
59189;SDS011;50749;51.636;4.948;2022-08-30T14:45:45;0.82;;;0.60;;
59189;SDS011;50749;51.636;4.948;2022-08-30T14:48:10;0.90;;;0.60;;
59189;SDS011;50749;51.636;4.948;2022-08-30T14:50:37;1.25;;;0.60;;
59189;SDS011;50749;51.636;4.948;2022-08-30T14:53:04;1.60;;;0.52;;
59189;SDS011;50749;51.636;4.948;2022-08-30T14:55:31;0.90;;;0.50;;
59189;SDS011;50749;51.636;4.948;2022-08-30T14:57:58;0.82;;;0.45;;
59189;SDS011;50749;51.636;4.948;2022-08-30T15:00:24;0.98;;;0.60;;
59189;SDS011;50749;51.636;4.948;2022-08-30T15:02:50;0.88;;;0.50;;
59189;SDS011;50749;51.636;4.948;2022-08-30T15:05:17;1.45;;;0.60;;
59189;SDS011;50749;51.636;4.948;2022-08-30T15:07:44;0.77;;;0.50;;
59189;SDS011;50749;51.636;4.948;2022-08-30T15:10:14;1.40;;;0.63;;
59189;SDS011;50749;51.636;4.948;2022-08-30T15:12:40;0.68;;;0.47;;
59189;SDS011;50749;51.636;4.948;2022-08-30T15:15:06;1.05;;;0.60;;
59189;SDS011;50749;51.636;4.948;2022-08-30T15:17:32;0.70;;;0.50;;
59189;SDS011;50749;51.636;4.948;2022-08-30T15:19:58;0.68;;;0.43;;
59189;SDS011;50749;51.636;4.948;2022-08-30T15:22:24;0.70;;;0.52;;
59189;SDS011;50749;51.636;4.948;2022-08-30T15:24:49;0.93;;;0.60;;
59189;SDS011;50749;51.636;4.948;2022-08-30T15:27:15;0.90;;;0.60;;
59189;SDS011;50749;51.636;4.948;2022-08-30T15:29:41;0.50;;;0.30;;
59189;SDS011;50749;51.636;4.948;2022-08-30T15:32:07;0.80;;;0.50;;
59189;SDS011;50749;51.636;4.948;2022-08-30T15:34:32;1.05;;;0.70;;
59189;SDS011;50749;51.636;4.948;2022-08-30T15:36:58;1.10;;;0.55;;
59189;SDS011;50749;51.636;4.948;2022-08-30T15:39:24;2.00;;;0.52;;
59189;SDS011;50749;51.636;4.948;2022-08-30T15:41:50;0.98;;;0.50;;
59189;SDS011;50749;51.636;4.948;2022-08-30T15:44:17;0.75;;;0.40;;
59189;SDS011;50749;51.636;4.948;2022-08-30T15:46:43;1.10;;;0.57;;
59189;SDS011;50749;51.636;4.948;2022-08-30T15:49:12;1.42;;;0.63;;
59189;SDS011;50749;51.636;4.948;2022-08-30T15:51:40;0.63;;;0.40;;
59189;SDS011;50749;51.636;4.948;2022-08-30T15:54:07;1.15;;;0.68;;
59189;SDS011;50749;51.636;4.948;2022-08-30T15:56:34;0.40;;;0.30;;
59189;SDS011;50749;51.636;4.948;2022-08-30T15:58:59;1.05;;;0.55;;
59189;SDS011;50749;51.636;4.948;2022-08-30T16:01:25;1.10;;;0.50;;
59189;SDS011;50749;51.636;4.948;2022-08-30T16:03:51;0.52;;;0.43;;
59189;SDS011;50749;51.636;4.948;2022-08-30T16:06:19;0.75;;;0.50;;
59189;SDS011;50749;51.636;4.948;2022-08-30T16:08:46;0.73;;;0.40;;
59189;SDS011;50749;51.636;4.948;2022-08-30T16:11:14;0.82;;;0.50;;
59189;SDS011;50749;51.636;4.948;2022-08-30T16:13:43;0.52;;;0.40;;
59189;SDS011;50749;51.636;4.948;2022-08-30T16:16:10;1.10;;;0.60;;
59189;SDS011;50749;51.636;4.948;2022-08-30T16:18:37;1.02;;;0.60;;
59189;SDS011;50749;51.636;4.948;2022-08-30T16:21:07;0.88;;;0.50;;
59189;SDS011;50749;51.636;4.948;2022-08-30T16:23:34;1.45;;;0.77;;
59189;SDS011;50749;51.636;4.948;2022-08-30T16:26:01;1.25;;;0.60;;
59189;SDS011;50749;51.636;4.948;2022-08-30T16:28:27;2.00;;;0.47;;
59189;SDS011;50749;51.636;4.948;2022-08-30T16:30:53;1.08;;;0.60;;